createdAt,value
2023-03-08T00:01:25.480Z,-1.55
2023-03-08T00:03:58.294Z,-1.44
2023-03-08T00:06:29.765Z,-1.55
2023-03-08T00:09:01.911Z,-1.57
2023-03-08T00:11:33.209Z,-1.52
2023-03-08T00:14:04.487Z,-1.52
2023-03-08T00:16:35.771Z,-1.53
2023-03-08T00:19:07.102Z,-1.55
2023-03-08T00:21:38.420Z,-1.58
2023-03-08T00:24:11.809Z,-1.76
2023-03-08T00:26:43.734Z,-1.63
2023-03-08T00:29:15.091Z,-1.60
2023-03-08T00:31:46.500Z,-1.73
2023-03-08T00:34:18.231Z,-1.63
2023-03-08T00:36:49.517Z,-1.57
2023-03-08T00:39:20.791Z,-1.57
2023-03-08T00:41:52.151Z,-1.60
2023-03-08T00:44:23.524Z,-1.64
2023-03-08T00:46:55.061Z,-1.66
2023-03-08T00:49:26.448Z,-1.67
2023-03-08T00:51:57.723Z,-1.63
2023-03-08T00:54:32.406Z,-1.63
2023-03-08T00:57:03.875Z,-1.69
2023-03-08T00:59:35.229Z,-1.75
2023-03-08T01:02:06.816Z,-1.61
2023-03-08T01:04:38.168Z,-1.62
2023-03-08T01:07:09.435Z,-1.63
2023-03-08T01:09:40.702Z,-1.63
2023-03-08T01:12:11.965Z,-1.65
2023-03-08T01:14:43.476Z,-1.55
2023-03-08T01:17:14.788Z,-1.49
2023-03-08T01:19:46.053Z,-1.41
2023-03-08T01:22:17.316Z,-1.43
2023-03-08T01:24:49.269Z,-1.20
2023-03-08T01:27:20.538Z,-1.10
2023-03-08T01:29:51.829Z,-1.04
2023-03-08T01:32:23.240Z,-1.07
2023-03-08T01:34:55.446Z,-0.97
2023-03-08T01:37:26.716Z,-0.95
2023-03-08T01:39:58.307Z,-1.02
2023-03-08T01:42:29.811Z,-0.91
2023-03-08T01:45:03.651Z,-0.83
2023-03-08T01:47:36.075Z,-0.75
2023-03-08T01:50:12.791Z,-0.57
2023-03-08T01:52:51.574Z,-0.47
2023-03-08T01:55:22.940Z,-0.38
2023-03-08T01:57:55.987Z,-0.30
2023-03-08T02:00:27.632Z,-0.23
2023-03-08T02:03:06.188Z,-0.16
2023-03-08T02:05:41.890Z,-0.08
2023-03-08T02:08:13.193Z,0.00
2023-03-08T02:10:44.707Z,0.05
2023-03-08T02:13:17.324Z,0.10
2023-03-08T02:15:51.721Z,0.02
2023-03-08T02:18:23.265Z,0.20
2023-03-08T02:20:54.576Z,0.10
2023-03-08T02:23:26.068Z,0.12
2023-03-08T02:26:02.458Z,0.20
2023-03-08T02:28:34.220Z,0.31
2023-03-08T02:31:06.254Z,0.32
2023-03-08T02:33:37.656Z,0.26
2023-03-08T02:36:09.697Z,0.42
2023-03-08T02:38:41.167Z,0.36
2023-03-08T02:41:12.430Z,0.47
2023-03-08T02:43:43.744Z,0.50
2023-03-08T02:46:15.163Z,0.53
2023-03-08T02:48:46.532Z,0.47
2023-03-08T02:51:17.805Z,0.57
2023-03-08T02:53:49.181Z,0.59
2023-03-08T02:56:20.763Z,0.61
2023-03-08T02:58:52.037Z,0.67
2023-03-08T03:01:23.758Z,0.70
2023-03-08T03:03:55.361Z,0.69
2023-03-08T03:06:26.693Z,0.61
2023-03-08T03:08:58.074Z,0.57
2023-03-08T03:11:29.328Z,0.71
2023-03-08T03:14:01.081Z,0.76
2023-03-08T03:16:32.513Z,0.72
2023-03-08T03:19:04.228Z,0.80
2023-03-08T03:21:35.643Z,0.70
2023-03-08T03:24:07.475Z,0.83
2023-03-08T03:26:38.999Z,0.83
2023-03-08T03:29:10.317Z,0.84
2023-03-08T03:31:41.772Z,0.76
2023-03-08T03:34:13.039Z,0.84
2023-03-08T03:36:44.313Z,0.87
2023-03-08T03:39:15.754Z,0.83
2023-03-08T03:41:47.010Z,0.93
2023-03-08T03:44:18.283Z,0.98
2023-03-08T03:46:49.693Z,0.98
2023-03-08T03:49:21.088Z,0.99
2023-03-08T03:51:52.366Z,1.00
2023-03-08T03:54:23.739Z,0.88
2023-03-08T03:56:58.059Z,1.01
2023-03-08T03:59:29.339Z,1.01
2023-03-08T04:02:00.631Z,1.03
2023-03-08T04:04:31.905Z,1.02
2023-03-08T04:07:03.288Z,0.89
2023-03-08T04:09:35.760Z,0.93
2023-03-08T04:12:07.268Z,1.03
2023-03-08T04:14:40.230Z,1.03
2023-03-08T04:17:11.510Z,1.03
2023-03-08T04:19:42.832Z,1.02
2023-03-08T04:22:14.096Z,1.02
2023-03-08T04:24:45.389Z,1.01
2023-03-08T04:27:16.660Z,0.98
2023-03-08T04:29:47.989Z,0.97
2023-03-08T04:32:19.299Z,0.84
2023-03-08T04:34:50.640Z,0.89
2023-03-08T04:37:22.024Z,0.83
2023-03-08T04:39:53.296Z,0.81
2023-03-08T04:42:24.667Z,0.78
2023-03-08T04:44:55.948Z,0.72
2023-03-08T04:47:27.215Z,0.81
2023-03-08T04:49:58.556Z,0.75
2023-03-08T04:52:29.851Z,0.81
2023-03-08T04:55:01.245Z,0.82
2023-03-08T04:57:32.532Z,0.84
2023-03-08T05:00:05.793Z,0.85
2023-03-08T05:02:37.129Z,0.88
2023-03-08T05:05:08.665Z,0.90
2023-03-08T05:07:40.062Z,0.93
2023-03-08T05:10:11.605Z,0.92
2023-03-08T05:12:42.963Z,0.85
2023-03-08T05:15:14.338Z,0.95
2023-03-08T05:17:45.692Z,0.94
2023-03-08T05:20:17.921Z,0.89
2023-03-08T05:22:58.531Z,0.95
2023-03-08T05:25:31.353Z,0.87
2023-03-08T05:28:02.725Z,1.02
2023-03-08T05:30:33.994Z,1.03
2023-03-08T05:33:05.300Z,1.07
2023-03-08T05:35:36.636Z,0.94
2023-03-08T05:38:08.110Z,0.76
2023-03-08T05:40:39.443Z,1.05
2023-03-08T05:43:10.709Z,1.03
2023-03-08T05:45:42.244Z,1.08
2023-03-08T05:48:13.550Z,1.08
2023-03-08T05:50:44.809Z,1.11
2023-03-08T05:53:16.084Z,1.11
2023-03-08T05:55:47.589Z,1.10
2023-03-08T05:58:18.927Z,1.12
2023-03-08T06:00:50.193Z,1.09
2023-03-08T06:03:21.521Z,1.08
2023-03-08T06:05:52.820Z,0.98
2023-03-08T06:08:24.088Z,0.83
2023-03-08T06:10:55.359Z,1.16
2023-03-08T06:13:26.638Z,1.11
2023-03-08T06:15:59.799Z,1.18
2023-03-08T06:18:31.897Z,1.20
2023-03-08T06:21:12.259Z,1.12
2023-03-08T06:23:45.620Z,1.26
2023-03-08T06:26:17.032Z,1.30
2023-03-08T06:28:48.292Z,1.34
2023-03-08T06:31:20.645Z,1.34
2023-03-08T06:33:51.923Z,1.30
2023-03-08T06:36:23.419Z,1.32
2023-03-08T06:38:54.713Z,1.30
2023-03-08T06:41:26.022Z,1.15
2023-03-08T06:43:57.816Z,1.31
2023-03-08T06:46:29.272Z,1.37
2023-03-08T06:49:01.285Z,1.28
2023-03-08T06:51:32.568Z,1.44
2023-03-08T06:54:04.496Z,1.48
2023-03-08T06:56:35.785Z,1.51
2023-03-08T06:59:07.042Z,1.53
2023-03-08T07:01:38.469Z,1.57
2023-03-08T07:04:09.831Z,1.52
2023-03-08T07:06:41.142Z,1.66
2023-03-08T07:09:13.670Z,1.66
2023-03-08T07:11:45.023Z,1.84
2023-03-08T07:14:16.382Z,1.83
2023-03-08T07:16:48.520Z,1.92
2023-03-08T07:19:20.052Z,1.89
2023-03-08T07:21:51.337Z,1.99
2023-03-08T07:24:22.596Z,2.00
2023-03-08T07:26:53.852Z,2.06
2023-03-08T07:29:25.134Z,1.96
2023-03-08T07:31:56.487Z,2.06
2023-03-08T07:34:27.844Z,2.10
2023-03-08T07:36:59.105Z,1.87
2023-03-08T07:39:30.471Z,2.13
2023-03-08T07:42:01.805Z,2.34
2023-03-08T07:44:33.127Z,2.27
2023-03-08T07:47:08.263Z,2.38
2023-03-08T07:49:39.552Z,2.50
2023-03-08T07:52:10.928Z,2.60
2023-03-08T07:54:43.738Z,2.64
2023-03-08T07:57:15.588Z,2.70
2023-03-08T07:59:46.861Z,2.65
2023-03-08T08:02:18.228Z,2.89
2023-03-08T08:04:50.647Z,2.85
2023-03-08T08:07:22.039Z,2.82
2023-03-08T08:09:54.111Z,2.97
2023-03-08T08:12:25.391Z,2.99
2023-03-08T08:14:56.706Z,2.88
2023-03-08T08:17:27.972Z,2.96
2023-03-08T08:19:59.657Z,3.17
2023-03-08T08:22:30.929Z,3.19
2023-03-08T08:25:04.859Z,3.25
2023-03-08T08:27:36.398Z,3.21
2023-03-08T08:30:08.381Z,3.36
2023-03-08T08:32:40.032Z,3.34
2023-03-08T08:35:11.406Z,3.44
2023-03-08T08:37:42.713Z,3.53
2023-03-08T08:40:14.117Z,3.62
2023-03-08T08:42:46.501Z,3.62
2023-03-08T08:45:17.879Z,3.79
2023-03-08T08:47:49.137Z,3.93
2023-03-08T08:50:20.391Z,4.04
2023-03-08T08:52:51.693Z,4.31
2023-03-08T08:55:23.031Z,4.49
2023-03-08T08:57:54.289Z,4.57
2023-03-08T09:00:26.174Z,4.52
2023-03-08T09:02:57.436Z,4.74
2023-03-08T09:05:29.088Z,5.01
2023-03-08T09:08:01.241Z,4.96
2023-03-08T09:10:34.636Z,5.11
2023-03-08T09:13:06.647Z,5.11
2023-03-08T09:15:37.955Z,5.11
2023-03-08T09:18:09.305Z,5.30
2023-03-08T09:20:40.698Z,5.59
2023-03-08T09:23:11.979Z,5.55
2023-03-08T09:25:43.352Z,5.45
2023-03-08T09:28:14.749Z,5.54
2023-03-08T09:30:46.025Z,5.41
2023-03-08T09:33:17.671Z,5.50
2023-03-08T09:35:59.478Z,5.52
2023-03-08T09:38:30.817Z,5.55
2023-03-08T09:41:05.050Z,5.70
2023-03-08T09:44:03.503Z,5.79
2023-03-08T09:46:40.807Z,5.68
2023-03-08T09:49:19.248Z,5.83
2023-03-08T09:51:57.279Z,5.84
2023-03-08T09:54:29.216Z,5.85
2023-03-08T09:57:06.690Z,6.06
2023-03-08T09:59:45.416Z,6.07
2023-03-08T10:02:31.883Z,6.26
2023-03-08T10:05:21.638Z,6.24
2023-03-08T10:08:02.797Z,6.18
2023-03-08T10:10:47.484Z,6.12
2023-03-08T10:13:36.065Z,6.09
2023-03-08T10:16:24.987Z,6.07
2023-03-08T10:19:02.506Z,6.10
2023-03-08T10:21:37.953Z,5.97
2023-03-08T10:24:26.537Z,6.04
2023-03-08T10:27:15.097Z,6.03
2023-03-08T10:29:58.395Z,6.17
2023-03-08T10:32:29.770Z,6.22
2023-03-08T10:35:04.781Z,6.36
2023-03-08T10:37:36.451Z,6.45
2023-03-08T10:40:10.923Z,6.60
2023-03-08T10:43:05.992Z,6.48
2023-03-08T10:45:37.341Z,6.65
2023-03-08T10:48:19.990Z,6.53
2023-03-08T10:51:00.035Z,6.73
2023-03-08T10:53:32.641Z,6.73
2023-03-08T10:56:04.273Z,6.55
2023-03-08T10:58:39.392Z,6.72
2023-03-08T11:01:28.928Z,6.73
2023-03-08T11:04:16.865Z,6.72
2023-03-08T11:06:48.493Z,6.76
2023-03-08T11:09:28.413Z,6.88
2023-03-08T11:12:00.599Z,6.59
2023-03-08T11:14:31.947Z,6.89
2023-03-08T11:17:12.092Z,7.09
2023-03-08T11:19:49.355Z,7.07
2023-03-08T11:22:38.324Z,7.27
2023-03-08T11:25:09.554Z,7.34
2023-03-08T11:28:05.833Z,7.44
2023-03-08T11:30:51.126Z,7.50
2023-03-08T11:33:28.718Z,7.53
2023-03-08T11:36:13.458Z,7.40
2023-03-08T11:38:53.009Z,7.42
2023-03-08T11:41:42.432Z,7.31
2023-03-08T11:44:33.471Z,7.45
2023-03-08T11:47:26.239Z,7.20
2023-03-08T11:50:20.918Z,6.84
2023-03-08T11:53:26.185Z,6.80
2023-03-08T11:56:09.586Z,6.80
2023-03-08T11:59:09.032Z,6.75
2023-03-08T12:02:08.067Z,6.79
2023-03-08T12:04:51.981Z,6.79
2023-03-08T12:07:35.403Z,6.86
2023-03-08T12:10:12.832Z,7.03
2023-03-08T12:12:51.186Z,6.80
2023-03-08T12:15:35.522Z,7.18
2023-03-08T12:18:21.049Z,7.24
2023-03-08T12:21:02.840Z,7.42
2023-03-08T12:23:43.353Z,7.57
2023-03-08T12:26:21.919Z,7.63
2023-03-08T12:28:59.900Z,7.59
2023-03-08T12:31:40.779Z,7.52
2023-03-08T12:34:24.957Z,7.52
2023-03-08T12:36:56.663Z,7.45
2023-03-08T12:39:34.007Z,7.40
2023-03-08T12:42:08.461Z,7.51
2023-03-08T12:44:40.417Z,7.61
2023-03-08T12:47:11.662Z,7.87
2023-03-08T12:49:46.974Z,8.09
2023-03-08T12:52:18.349Z,8.35
2023-03-08T12:55:01.083Z,8.53
2023-03-08T12:57:45.971Z,8.60
2023-03-08T13:00:20.434Z,8.60
2023-03-08T13:03:06.400Z,8.35
2023-03-08T13:05:40.004Z,8.30
2023-03-08T13:08:14.296Z,8.20
2023-03-08T13:11:04.113Z,8.09
2023-03-08T13:13:58.055Z,7.97
2023-03-08T13:16:35.504Z,7.89
2023-03-08T13:19:15.870Z,7.84
2023-03-08T13:21:53.798Z,7.82
2023-03-08T13:24:36.225Z,7.69
2023-03-08T13:27:35.869Z,7.58
2023-03-08T13:30:35.465Z,7.30
2023-03-08T13:33:12.324Z,7.48
2023-03-08T13:35:43.654Z,7.45
2023-03-08T13:38:22.724Z,7.43
2023-03-08T13:40:55.786Z,7.54
2023-03-08T13:43:30.044Z,7.55
2023-03-08T13:46:10.671Z,7.35
2023-03-08T13:48:44.295Z,7.23
2023-03-08T13:51:18.872Z,7.53
2023-03-08T13:53:50.348Z,7.51
2023-03-08T13:56:27.766Z,7.44
2023-03-08T13:59:00.523Z,7.32
2023-03-08T14:01:31.950Z,7.30
2023-03-08T14:04:11.177Z,7.27
2023-03-08T14:06:49.213Z,7.35
2023-03-08T14:09:21.119Z,7.29
2023-03-08T14:11:57.474Z,7.50
2023-03-08T14:14:33.632Z,7.57
2023-03-08T14:17:05.175Z,7.45
2023-03-08T14:19:40.139Z,7.48
2023-03-08T14:22:28.697Z,7.42
2023-03-08T14:25:22.401Z,7.37
2023-03-08T14:27:54.225Z,7.32
2023-03-08T14:30:28.256Z,7.17
2023-03-08T14:33:02.681Z,7.02
2023-03-08T14:35:39.811Z,6.93
2023-03-08T14:38:22.622Z,6.88
2023-03-08T14:40:54.925Z,6.95
2023-03-08T14:43:27.307Z,6.96
2023-03-08T14:46:07.182Z,6.87
2023-03-08T14:48:38.586Z,6.75
2023-03-08T14:51:19.911Z,6.81
2023-03-08T14:54:06.498Z,6.75
2023-03-08T14:56:37.855Z,6.78
2023-03-08T14:59:14.016Z,6.81
2023-03-08T15:01:53.077Z,6.80
2023-03-08T15:04:25.628Z,6.78
2023-03-08T15:06:57.414Z,6.80
2023-03-08T15:09:29.963Z,6.75
2023-03-08T15:12:01.513Z,6.61
2023-03-08T15:14:32.845Z,6.33
2023-03-08T15:17:04.227Z,6.06
2023-03-08T15:19:35.747Z,6.10
2023-03-08T15:22:07.122Z,6.08
2023-03-08T15:24:39.361Z,6.13
2023-03-08T15:27:15.602Z,6.16
2023-03-08T15:29:46.839Z,6.18
2023-03-08T15:32:18.239Z,6.17
2023-03-08T15:34:49.809Z,6.16
2023-03-08T15:37:21.359Z,6.04
2023-03-08T15:39:52.659Z,6.03
2023-03-08T15:42:24.003Z,5.91
2023-03-08T15:44:55.278Z,5.96
2023-03-08T15:47:27.175Z,5.93
2023-03-08T15:49:58.507Z,5.84
2023-03-08T15:52:31.033Z,5.75
2023-03-08T15:55:03.820Z,5.70
2023-03-08T15:57:37.450Z,5.55
2023-03-08T16:00:13.947Z,5.48
2023-03-08T16:02:45.335Z,5.33
2023-03-08T16:05:19.528Z,5.22
2023-03-08T16:07:59.835Z,5.29
2023-03-08T16:10:40.262Z,5.23
2023-03-08T16:13:11.654Z,5.22
2023-03-08T16:15:43.069Z,5.16
2023-03-08T16:18:14.511Z,5.08
2023-03-08T16:20:46.352Z,5.04
2023-03-08T16:23:17.680Z,4.96
2023-03-08T16:26:13.544Z,4.82
2023-03-08T16:28:46.945Z,4.76
2023-03-08T16:31:20.830Z,4.70
2023-03-08T16:33:52.160Z,4.67
2023-03-08T16:36:23.436Z,4.53
2023-03-08T16:38:56.583Z,4.47
2023-03-08T16:41:29.932Z,4.56
2023-03-08T16:44:01.321Z,4.42
2023-03-08T16:46:33.532Z,4.49
2023-03-08T16:49:04.842Z,4.47
2023-03-08T16:51:38.499Z,4.46
2023-03-08T16:54:13.481Z,4.39
2023-03-08T16:56:44.836Z,4.38
2023-03-08T16:59:17.164Z,4.34
2023-03-08T17:01:49.828Z,4.26
2023-03-08T17:04:22.643Z,4.33
2023-03-08T17:06:53.977Z,4.28
2023-03-08T17:09:25.411Z,4.21
2023-03-08T17:11:57.787Z,4.20
2023-03-08T17:14:29.174Z,4.10
2023-03-08T17:17:00.542Z,4.02
2023-03-08T17:19:32.736Z,3.97
2023-03-08T17:22:05.196Z,4.04
2023-03-08T17:24:36.464Z,4.00
2023-03-08T17:27:07.793Z,3.96
2023-03-08T17:29:39.081Z,3.90
2023-03-08T17:32:10.391Z,3.73
2023-03-08T17:34:41.711Z,3.67
2023-03-08T17:37:13.022Z,3.68
2023-03-08T17:39:44.567Z,3.56
2023-03-08T17:42:15.953Z,3.59
2023-03-08T17:44:47.369Z,3.56
2023-03-08T17:47:18.752Z,3.51
2023-03-08T17:49:50.304Z,3.48
2023-03-08T17:52:22.681Z,3.29
2023-03-08T17:54:56.947Z,3.38
2023-03-08T17:57:28.233Z,3.35
2023-03-08T17:59:59.593Z,3.29
2023-03-08T18:02:31.249Z,3.27
2023-03-08T18:05:02.608Z,3.23
2023-03-08T18:07:34.066Z,3.20
2023-03-08T18:10:06.361Z,3.16
2023-03-08T18:12:37.736Z,3.07
2023-03-08T18:15:09.664Z,3.08
2023-03-08T18:17:41.388Z,2.95
2023-03-08T18:20:12.797Z,3.02
2023-03-08T18:22:47.020Z,2.80
2023-03-08T18:25:19.325Z,2.94
2023-03-08T18:27:50.711Z,2.89
2023-03-08T18:30:22.044Z,2.83
2023-03-08T18:32:53.328Z,2.77
2023-03-08T18:35:24.797Z,2.56
2023-03-08T18:37:56.093Z,2.60
2023-03-08T18:40:29.350Z,2.52
2023-03-08T18:43:01.017Z,2.48
2023-03-08T18:45:32.317Z,2.40
2023-03-08T18:48:03.587Z,2.33
2023-03-08T18:50:34.827Z,2.16
2023-03-08T18:53:06.108Z,2.02
2023-03-08T18:55:37.509Z,2.14
2023-03-08T18:58:08.809Z,2.10
2023-03-08T19:00:40.154Z,2.08
2023-03-08T19:03:11.429Z,2.03
2023-03-08T19:05:43.093Z,2.02
2023-03-08T19:08:14.589Z,1.77
2023-03-08T19:10:46.057Z,1.93
2023-03-08T19:13:17.435Z,1.81
2023-03-08T19:15:48.703Z,1.77
2023-03-08T19:18:19.984Z,1.86
2023-03-08T19:20:51.448Z,1.79
2023-03-08T19:23:22.752Z,1.69
2023-03-08T19:26:12.688Z,1.49
2023-03-08T19:28:44.035Z,1.63
2023-03-08T19:31:17.177Z,1.61
2023-03-08T19:33:49.716Z,1.57
2023-03-08T19:36:21.042Z,1.54
2023-03-08T19:38:52.519Z,1.43
2023-03-08T19:41:24.302Z,1.53
2023-03-08T19:43:55.587Z,1.55
2023-03-08T19:46:26.884Z,1.56
2023-03-08T19:48:58.208Z,1.25
2023-03-08T19:51:29.548Z,1.57
2023-03-08T19:54:00.960Z,1.59
2023-03-08T19:56:33.252Z,1.49
2023-03-08T19:59:04.612Z,1.68
2023-03-08T20:01:36.526Z,1.67
2023-03-08T20:04:10.077Z,1.68
2023-03-08T20:06:46.332Z,1.68
2023-03-08T20:09:21.344Z,1.67
2023-03-08T20:11:57.325Z,1.63
2023-03-08T20:14:29.711Z,1.56
2023-03-08T20:17:01.795Z,1.58
2023-03-08T20:19:34.058Z,1.49
2023-03-08T20:22:05.958Z,1.43
2023-03-08T20:24:37.225Z,1.49
2023-03-08T20:27:11.232Z,1.45
2023-03-08T20:29:42.509Z,1.30
2023-03-08T20:32:14.497Z,1.40
2023-03-08T20:34:45.854Z,1.30
2023-03-08T20:37:17.140Z,1.25
2023-03-08T20:39:52.378Z,1.35
2023-03-08T20:42:23.752Z,1.22
2023-03-08T20:44:55.156Z,1.21
2023-03-08T20:47:26.682Z,1.20
2023-03-08T20:49:58.253Z,1.23
2023-03-08T20:52:29.586Z,1.22
2023-03-08T20:55:00.855Z,1.15
2023-03-08T20:57:32.217Z,1.10
2023-03-08T21:00:04.998Z,1.09
2023-03-08T21:02:36.834Z,1.07
2023-03-08T21:05:08.473Z,1.19
2023-03-08T21:07:40.096Z,1.08
2023-03-08T21:10:11.373Z,1.15
2023-03-08T21:12:42.766Z,1.09
2023-03-08T21:15:14.057Z,0.94
2023-03-08T21:17:45.320Z,1.05
2023-03-08T21:20:16.807Z,1.02
2023-03-08T21:22:48.077Z,0.96
2023-03-08T21:25:19.397Z,0.91
2023-03-08T21:27:50.679Z,0.78
2023-03-08T21:30:22.332Z,0.73
2023-03-08T21:32:53.662Z,0.64
2023-03-08T21:35:25.017Z,0.58
2023-03-08T21:37:56.290Z,0.45
2023-03-08T21:40:27.583Z,0.36
2023-03-08T21:42:58.850Z,0.39
2023-03-08T21:45:30.245Z,0.26
2023-03-08T21:48:01.503Z,0.36
2023-03-08T21:50:33.486Z,0.36
2023-03-08T21:53:04.818Z,0.42
2023-03-08T21:55:39.996Z,0.40
2023-03-08T21:58:11.277Z,0.28
2023-03-08T22:00:42.571Z,0.53
2023-03-08T22:03:13.885Z,0.56
2023-03-08T22:05:45.308Z,0.55
2023-03-08T22:08:16.776Z,0.60
2023-03-08T22:10:48.610Z,0.52
2023-03-08T22:13:20.469Z,0.64
2023-03-08T22:15:51.805Z,0.58
2023-03-08T22:18:23.122Z,0.61
2023-03-08T22:20:54.990Z,0.75
2023-03-08T22:23:27.001Z,0.80
2023-03-08T22:25:58.315Z,0.82
2023-03-08T22:28:29.628Z,0.84
2023-03-08T22:31:00.935Z,0.85
2023-03-08T22:33:32.188Z,0.86
2023-03-08T22:36:08.489Z,0.86
2023-03-08T22:38:40.409Z,0.87
2023-03-08T22:41:17.272Z,0.69
2023-03-08T22:43:49.413Z,0.85
2023-03-08T22:46:23.454Z,0.83
2023-03-08T22:48:57.478Z,0.65
2023-03-08T22:51:28.839Z,0.81
2023-03-08T22:54:04.030Z,0.62
2023-03-08T22:56:35.450Z,0.60
2023-03-08T22:59:06.709Z,0.72
2023-03-08T23:01:39.114Z,0.58
2023-03-08T23:04:12.566Z,0.72
2023-03-08T23:06:44.218Z,0.70
2023-03-08T23:09:16.989Z,0.69
2023-03-08T23:11:48.665Z,0.67
2023-03-08T23:14:19.955Z,0.58
2023-03-08T23:16:51.558Z,0.56
2023-03-08T23:19:22.924Z,0.57
2023-03-08T23:21:54.208Z,0.52
2023-03-08T23:24:25.500Z,0.71
2023-03-08T23:27:01.658Z,0.59
2023-03-08T23:29:33.053Z,0.70
2023-03-08T23:32:04.711Z,0.61
2023-03-08T23:34:36.609Z,0.69
2023-03-08T23:37:08.056Z,0.39
2023-03-08T23:39:39.350Z,0.82
2023-03-08T23:42:10.607Z,0.85
2023-03-08T23:44:41.967Z,0.75
2023-03-08T23:47:13.281Z,0.87
2023-03-08T23:49:44.689Z,0.82
2023-03-08T23:52:15.954Z,0.86
2023-03-08T23:54:47.385Z,0.92
2023-03-08T23:57:19.020Z,0.94
2023-03-08T23:59:50.297Z,0.97
